Time;durP1;ratioP1;P1;durP2;ratioP2;P2;SDS_P1;SDS_P2;PMS_P1;PMS_P2;Temp;Humidity;BMP_temperature;BMP_pressure;BME280_temperature;BME280_humidity;BME280_pressure;Samples;Min_cycle;Max_cycle;Signal;HPM_P1;HPM_P2
2024/01/02 00:02:01;;;;;;;;;0.00;0.00;;;;;12.44;100.00;99949.53;5073053;28;45330;-88
2024/01/02 00:04:27;;;;;;;;;0.00;0.00;;;;;12.38;100.00;99952.44;5057959;28;46367;-88
2024/01/02 00:06:53;;;;;;;;;0.00;0.00;;;;;12.48;100.00;99952.84;5058369;28;45410;-88
2024/01/02 00:09:18;;;;;;;;;0.00;0.00;;;;;12.32;100.00;99947.53;5059363;28;45734;-87
2024/01/02 00:11:43;;;;;;;;;0.00;0.00;;;;;12.53;100.00;99945.63;5054066;28;45303;-87
2024/01/02 00:14:09;;;;;;;;;0.00;0.00;;;;;12.28;100.00;99939.00;5076947;28;45261;-88
2024/01/02 00:16:34;;;;;;;;;0.00;0.00;;;;;12.43;100.00;99941.81;5093181;27;66070;-88
2024/01/02 00:19:00;;;;;;;;;0.00;0.00;;;;;12.39;100.00;99925.44;5093358;27;66897;-88
2024/01/02 00:21:25;;;;;;;;;0.00;0.00;;;;;12.27;100.00;99934.69;5082636;27;60298;-89
2024/01/02 00:23:50;;;;;;;;;0.00;0.00;;;;;12.39;100.00;99910.63;5056177;28;69855;-89
2024/01/02 00:26:15;;;;;;;;;0.00;0.00;;;;;12.60;100.00;99923.53;5039999;28;62016;-89
2024/01/02 00:28:41;;;;;;;;;0.00;0.00;;;;;12.61;100.00;99900.84;5056353;28;54888;-89
2024/01/02 00:31:07;;;;;;;;;0.00;0.00;;;;;12.63;100.00;99902.50;5056393;28;45381;-90
2024/01/02 00:33:33;;;;;;;;;0.00;0.00;;;;;12.66;100.00;99884.03;5056522;28;45393;-89
2024/01/02 00:35:58;;;;;;;;;0.00;0.00;;;;;12.61;100.00;99882.59;5056729;28;47027;-89
2024/01/02 00:38:27;;;;;;;;;0.00;0.00;;;;;12.59;100.00;99874.81;5039687;28;60559;-88
2024/01/02 00:40:55;;;;;;;;;0.00;0.00;;;;;12.48;100.00;99861.47;5076925;28;45416;-88
2024/01/02 00:43:20;;;;;;;;;0.00;0.00;;;;;12.56;100.00;99854.13;5057227;28;76861;-89
2024/01/02 00:45:45;;;;;;;;;0.00;0.00;;;;;12.57;100.00;99851.44;5077335;28;45715;-88
2024/01/02 00:48:11;;;;;;;;;0.00;0.00;;;;;12.55;100.00;99865.47;5078068;27;45361;-88
2024/01/02 00:50:36;;;;;;;;;0.00;0.00;;;;;12.57;100.00;99861.88;5076245;28;45669;-87
2024/01/02 00:53:04;;;;;;;;;0.00;0.00;;;;;12.56;100.00;99841.06;5076579;28;47272;-86
2024/01/02 00:55:30;;;;;;;;;0.00;0.00;;;;;12.63;100.00;99842.44;5077645;27;45390;-88
2024/01/02 00:57:58;;;;;;;;;0.00;0.00;;;;;12.81;100.00;99852.84;5077897;28;45337;-88
2024/01/02 01:00:23;;;;;;;;;0.00;0.00;;;;;12.63;100.00;99828.53;5058492;28;69632;-88
2024/01/02 01:02:49;;;;;;;;;0.00;0.00;;;;;12.79;100.00;99826.81;5075392;28;75613;-89
2024/01/02 01:05:19;;;;;;;;;0.00;0.00;;;;;12.51;100.00;99846.50;5077015;28;60417;-89
2024/01/02 01:07:45;;;;;;;;;0.00;0.00;;;;;12.65;100.00;99824.94;5078167;27;45405;-91
2024/01/02 01:10:13;;;;;;;;;0.00;0.00;;;;;12.63;100.00;99807.63;5059368;28;45725;-91
2024/01/02 01:12:39;;;;;;;;;0.00;0.00;;;;;12.58;100.00;99800.91;5056010;28;56282;-90
2024/01/02 01:15:08;;;;;;;;;0.00;0.00;;;;;12.55;100.00;99795.00;5056157;28;45521;-89
2024/01/02 01:17:33;;;;;;;;;0.00;0.00;;;;;12.68;100.00;99779.53;5039541;28;45397;-89
2024/01/02 01:20:02;;;;;;;;;0.00;0.00;;;;;12.74;100.00;99784.41;5054238;28;66606;-90
2024/01/02 01:22:27;;;;;;;;;0.00;0.00;;;;;12.66;100.00;99802.25;5076640;28;45541;-90
2024/01/02 01:24:53;;;;;;;;;0.00;0.00;;;;;12.69;100.00;99786.44;5093659;27;45440;-89
2024/01/02 01:27:18;;;;;;;;;0.00;0.00;;;;;12.73;100.00;99780.97;5076830;28;62788;-89
2024/01/02 01:29:43;;;;;;;;;0.00;0.00;;;;;12.51;100.00;99772.59;5075573;28;60423;-89
2024/01/02 01:32:10;;;;;;;;;0.00;0.00;;;;;12.78;100.00;99773.75;5058855;28;71250;-89
2024/01/02 01:34:35;;;;;;;;;0.00;0.00;;;;;12.67;100.00;99783.06;5076273;28;45378;-89
2024/01/02 01:37:01;;;;;;;;;0.00;0.00;;;;;12.62;100.00;99785.09;5059068;28;45673;-88
2024/01/02 01:39:26;;;;;;;;;0.00;0.00;;;;;12.89;100.00;99764.47;5076033;28;45528;-88
2024/01/02 01:41:52;;;;;;;;;0.00;0.00;;;;;12.67;100.00;99763.03;5059172;28;47152;-88
2024/01/02 01:44:17;;;;;;;;;0.00;0.00;;;;;12.64;100.00;99770.19;5059518;28;45269;-88
2024/01/02 01:46:45;;;;;;;;;0.00;0.00;;;;;12.49;100.00;99790.09;5076556;28;51362;-93
2024/01/02 01:49:12;;;;;;;;;0.00;0.00;;;;;12.68;100.00;99772.53;5058783;28;65347;-88
2024/01/02 01:51:40;;;;;;;;;0.00;0.00;;;;;12.70;100.00;99769.84;5075818;28;46120;-89
2024/01/02 01:54:06;;;;;;;;;0.00;0.00;;;;;12.66;100.00;99768.31;5059012;28;46354;-90
2024/01/02 01:56:35;;;;;;;;;0.00;0.00;;;;;12.67;100.00;99759.59;5075610;28;49517;-89
2024/01/02 01:59:00;;;;;;;;;0.00;0.00;;;;;12.64;100.00;99765.78;5059032;28;53453;-90
2024/01/02 02:01:29;;;;;;;;;0.00;0.00;;;;;12.60;100.00;99753.81;5076316;28;47947;-91
2024/01/02 02:03:55;;;;;;;;;0.00;0.00;;;;;12.63;100.00;99758.03;5075785;28;47045;-88
2024/01/02 02:06:23;;;;;;;;;0.00;0.00;;;;;12.66;100.00;99757.88;5061351;28;45471;-88
2024/01/02 02:08:50;;;;;;;;;0.00;0.00;;;;;12.61;100.00;99762.50;5038738;28;45675;-87
2024/01/02 02:11:23;;;;;;;;;0.00;0.00;;;;;12.56;100.00;99778.41;5050374;28;48314;-91
2024/01/02 02:13:49;;;;;;;;;0.00;0.00;;;;;12.63;100.00;99755.41;5075344;28;45302;-87
2024/01/02 02:16:15;;;;;;;;;0.00;0.00;;;;;12.65;100.00;99753.56;5062283;28;45723;-88
2024/01/02 02:18:41;;;;;;;;;0.00;0.00;;;;;12.60;100.00;99759.06;5057208;28;45399;-88
2024/01/02 02:21:06;;;;;;;;;0.00;0.00;;;;;12.68;100.00;99746.41;5055138;28;47263;-88
2024/01/02 02:23:31;;;;;;;;;0.00;0.00;;;;;12.63;100.00;99740.63;5054385;28;68196;-88
2024/01/02 02:26:04;;;;;;;;;0.00;0.00;;;;;12.57;100.00;99777.47;5037740;28;60477;-88
2024/01/02 02:28:29;;;;;;;;;0.00;0.00;;;;;12.63;100.00;99753.69;5056594;28;45486;-87
2024/01/02 02:30:55;;;;;;;;;0.00;0.00;;;;;12.76;100.00;99746.88;5055887;28;67034;-89
2024/01/02 02:33:20;;;;;;;;;0.00;0.00;;;;;12.92;100.00;99748.63;5054557;28;51747;-89
2024/01/02 02:35:48;;;;;;;;;0.00;0.00;;;;;12.89;100.00;99735.75;5063504;28;55313;-88
2024/01/02 02:38:14;;;;;;;;;0.00;0.00;;;;;12.97;100.00;99749.25;5074501;28;61322;-87
2024/01/02 02:40:39;;;;;;;;;0.00;0.00;;;;;13.01;100.00;99757.75;5074719;28;54982;-88
2024/01/02 02:43:05;;;;;;;;;0.00;0.00;;;;;13.03;100.00;99748.91;5062250;28;45397;-88
2024/01/02 02:45:50;;;;;;;;;1.00;0.00;;;;;12.87;100.00;99798.53;5064378;28;45397;-92
2024/01/02 02:48:15;;;;;;;;;0.00;0.00;;;;;12.95;100.00;99748.47;5054032;28;45299;-87
2024/01/02 02:50:41;;;;;;;;;0.00;0.00;;;;;12.81;100.00;99754.44;5056522;28;51009;-87
2024/01/02 02:53:06;;;;;;;;;0.00;0.00;;;;;12.89;100.00;99746.19;5074768;28;53952;-87
2024/01/02 02:55:31;;;;;;;;;0.00;0.00;;;;;12.91;100.00;99732.13;5063497;28;68400;-87
2024/01/02 02:57:57;;;;;;;;;0.00;0.00;;;;;12.92;100.00;99738.19;5078456;28;59073;-88
2024/01/02 03:00:25;;;;;;;;;0.00;0.00;;;;;12.87;100.00;99730.63;5060896;28;68721;-87
2024/01/02 03:02:50;;;;;;;;;0.00;0.00;;;;;12.86;100.00;99751.59;5078336;28;45480;-87
2024/01/02 03:05:16;;;;;;;;;0.00;0.00;;;;;12.83;100.00;99747.38;5062111;28;45370;-88
2024/01/02 03:07:42;;;;;;;;;0.00;0.00;;;;;12.79;100.00;99758.91;5079203;27;45303;-89
2024/01/02 03:10:14;;;;;;;;;0.00;0.00;;;;;12.76;100.00;99739.03;5079372;28;45559;-88
2024/01/02 03:12:39;;;;;;;;;0.00;0.00;;;;;12.84;100.00;99729.94;5079256;27;45333;-88
2024/01/02 03:15:05;;;;;;;;;0.00;0.00;;;;;12.82;100.00;99735.25;5077278;28;45783;-90
2024/01/02 03:17:30;;;;;;;;;0.00;0.00;;;;;12.75;100.00;99737.34;5041676;28;45384;-89
2024/01/02 03:19:56;;;;;;;;;0.00;0.00;;;;;12.81;100.00;99762.28;5059761;28;46412;-88
2024/01/02 03:22:21;;;;;;;;;0.00;0.00;;;;;12.76;100.00;99741.66;5059298;28;45315;-88
2024/01/02 03:24:47;;;;;;;;;0.00;0.00;;;;;12.90;100.00;99734.81;5040832;28;53141;-88
2024/01/02 03:27:12;;;;;;;;;0.00;0.00;;;;;12.94;100.00;99729.34;5057637;28;59422;-89
2024/01/02 03:29:37;;;;;;;;;0.00;0.00;;;;;12.85;100.00;99745.53;5040925;28;65160;-87
2024/01/02 03:32:04;;;;;;;;;0.00;0.00;;;;;12.88;100.00;99740.13;5058012;28;45286;-87
2024/01/02 03:34:29;;;;;;;;;0.00;0.00;;;;;12.78;100.00;99755.47;5041100;28;45415;-88
2024/01/02 03:36:54;;;;;;;;;0.00;0.00;;;;;12.75;100.00;99739.94;5069534;28;63571;-87
2024/01/02 03:39:23;;;;;;;;;0.00;0.00;;;;;12.83;100.00;99733.47;5078498;27;45284;-89
2024/01/02 03:41:48;;;;;;;;;0.00;0.00;;;;;12.84;100.00;99738.63;5076818;28;71596;-87
2024/01/02 03:44:13;;;;;;;;;0.00;0.00;;;;;12.77;100.00;99740.69;5060374;28;55942;-87
2024/01/02 03:46:42;;;;;;;;;0.00;0.00;;;;;12.85;100.00;99739.44;5061515;28;45443;-87
2024/01/02 03:49:10;;;;;;;;;0.00;0.00;;;;;12.86;100.00;99722.88;5078148;28;46270;-87
2024/01/02 03:51:36;;;;;;;;;0.00;0.00;;;;;12.81;100.00;99735.31;5077891;28;45531;-87
2024/01/02 03:54:04;;;;;;;;;0.00;0.00;;;;;12.79;100.00;99732.78;5085079;27;45372;-88
2024/01/02 03:56:29;;;;;;;;;0.00;0.00;;;;;12.89;100.00;99733.13;5079169;27;45309;-87
2024/01/02 03:58:55;;;;;;;;;0.00;0.00;;;;;12.91;100.00;99716.47;5061446;28;47823;-89
2024/01/02 04:01:20;;;;;;;;;0.00;0.00;;;;;12.82;100.00;99726.56;5077702;28;49620;-89
2024/01/02 04:03:46;;;;;;;;;0.00;0.00;;;;;12.70;100.00;99743.72;5077394;28;54012;-88
2024/01/02 04:06:14;;;;;;;;;0.00;0.00;;;;;12.84;100.00;99707.28;5077436;28;45488;-87
2024/01/02 04:08:40;;;;;;;;;0.00;0.00;;;;;12.78;100.00;99726.72;5075104;28;45657;-87
2024/01/02 04:11:05;;;;;;;;;0.00;0.00;;;;;12.72;100.00;99719.25;5057747;28;45335;-90
2024/01/02 04:13:31;;;;;;;;;0.00;0.00;;;;;12.81;100.00;99715.25;5040711;28;45350;-87
2024/01/02 04:15:56;;;;;;;;;0.00;0.00;;;;;12.76;100.00;99715.53;5056985;28;56534;-87
2024/01/02 04:18:21;;;;;;;;;0.00;0.00;;;;;12.69;100.00;99724.63;5039996;28;48524;-87
2024/01/02 04:20:47;;;;;;;;;0.00;0.00;;;;;12.66;100.00;99723.94;5093961;27;45406;-86
2024/01/02 04:23:15;;;;;;;;;0.00;0.00;;;;;12.59;100.00;99731.25;5077897;27;45431;-87
2024/01/02 04:25:40;;;;;;;;;0.00;0.00;;;;;12.54;100.00;99720.22;5076292;28;63771;-86
2024/01/02 04:28:07;;;;;;;;;0.00;0.00;;;;;12.58;100.00;99737.41;5077590;27;65894;-87
2024/01/02 04:30:32;;;;;;;;;0.00;0.00;;;;;12.65;100.00;99715.28;5041887;28;72496;-87
2024/01/02 04:32:57;;;;;;;;;0.00;0.00;;;;;12.66;100.00;99706.50;5056763;28;49262;-86
2024/01/02 04:35:23;;;;;;;;;0.00;0.00;;;;;12.64;100.00;99713.56;5039176;28;63572;-87
2024/01/02 04:37:48;;;;;;;;;0.00;0.00;;;;;12.76;100.00;99707.69;5055871;28;55654;-88
2024/01/02 04:40:13;;;;;;;;;0.00;0.00;;;;;12.77;100.00;99695.47;5053965;28;45338;-87
2024/01/02 04:42:39;;;;;;;;;0.00;0.00;;;;;12.85;100.00;99700.28;5068060;28;46470;-86
2024/01/02 04:45:07;;;;;;;;;0.00;0.00;;;;;12.85;100.00;99695.06;5057710;28;45281;-88
2024/01/02 04:47:36;;;;;;;;;0.00;0.00;;;;;12.83;100.00;99708.19;5061830;28;48453;-87
2024/01/02 04:50:04;;;;;;;;;0.00;0.00;;;;;12.78;100.00;99691.94;5060398;28;45513;-86
2024/01/02 04:52:30;;;;;;;;;0.00;0.00;;;;;12.71;100.00;99706.25;5060240;28;45256;-87
2024/01/02 04:54:56;;;;;;;;;0.00;0.00;;;;;12.76;100.00;99706.88;5077484;28;45322;-87
2024/01/02 04:57:21;;;;;;;;;0.00;0.00;;;;;12.76;100.00;99710.31;5073619;28;47195;-88
2024/01/02 04:59:49;;;;;;;;;0.00;0.00;;;;;12.74;100.00;99703.47;5039165;28;72979;-88
2024/01/02 05:02:15;;;;;;;;;0.00;0.00;;;;;12.71;100.00;99704.47;5056359;28;45434;-88
2024/01/02 05:04:41;;;;;;;;;0.00;0.00;;;;;12.79;100.00;99706.69;5040263;28;45252;-89
2024/01/02 05:07:06;;;;;;;;;0.00;0.00;;;;;12.91;100.00;99699.97;5040963;28;48062;-88
2024/01/02 05:09:31;;;;;;;;;0.00;0.00;;;;;12.74;100.00;99699.09;5076771;28;45318;-89
2024/01/02 05:11:57;;;;;;;;;0.00;0.00;;;;;12.69;100.00;99706.34;5060564;28;45433;-89
2024/01/02 05:14:22;;;;;;;;;0.00;0.00;;;;;12.83;100.00;99695.13;5075827;28;45545;-89
2024/01/02 05:16:47;;;;;;;;;0.00;0.00;;;;;12.85;100.00;99695.06;5058946;28;66875;-89
2024/01/02 05:19:13;;;;;;;;;0.00;0.00;;;;;12.74;100.00;99682.56;5058908;28;45384;-88
2024/01/02 05:21:41;;;;;;;;;0.00;0.00;;;;;12.70;100.00;99705.44;5055741;28;54549;-89
2024/01/02 05:24:06;;;;;;;;;0.00;0.00;;;;;12.65;100.00;99702.22;5056405;28;45677;-90
2024/01/02 05:26:35;;;;;;;;;0.00;0.00;;;;;12.64;100.00;99686.63;5056390;28;45816;-89
2024/01/02 05:29:00;;;;;;;;;0.00;0.00;;;;;12.61;100.00;99681.56;5054416;28;64365;-89
2024/01/02 05:31:29;;;;;;;;;0.00;0.00;;;;;12.55;100.00;99675.75;5077880;27;45506;-90
2024/01/02 05:33:54;;;;;;;;;0.00;0.00;;;;;12.54;100.00;99681.91;5059428;28;58342;-89
2024/01/02 05:36:19;;;;;;;;;0.00;0.00;;;;;12.55;100.00;99662.69;5075649;27;57785;-89
2024/01/02 05:38:48;;;;;;;;;0.00;0.00;;;;;12.49;100.00;99672.63;5074943;28;66160;-90
2024/01/02 05:41:13;;;;;;;;;0.00;0.00;;;;;12.47;100.00;99682.31;5076480;27;50527;-89
2024/01/02 05:43:38;;;;;;;;;0.00;0.00;;;;;12.55;100.00;99672.28;5041301;28;72366;-88
2024/01/02 05:46:05;;;;;;;;;0.00;0.00;;;;;12.48;100.00;99678.78;5076088;28;46912;-90
2024/01/02 05:48:30;;;;;;;;;0.00;0.00;;;;;12.58;100.00;99674.75;5065385;28;45670;-90
2024/01/02 05:50:58;;;;;;;;;0.00;0.00;;;;;12.49;100.00;99709.19;5055593;28;56675;-90
2024/01/02 05:53:24;;;;;;;;;0.00;0.00;;;;;12.44;100.00;99661.59;5057260;28;45361;-89
2024/01/02 05:56:04;;;;;;;;;0.00;0.00;;;;;12.50;100.00;99664.72;5056867;28;61996;-92
2024/01/02 05:58:30;;;;;;;;;0.00;0.00;;;;;12.51;100.00;99666.41;5066144;28;45508;-89
2024/01/02 06:01:17;;;;;;;;;0.00;0.00;;;;;12.48;100.00;99663.97;5076500;28;53274;-91
2024/01/02 06:03:50;;;;;;;;;0.00;0.00;;;;;12.37;100.00;99659.31;5078074;27;45242;-90
2024/01/02 06:06:16;;;;;;;;;0.00;0.00;;;;;12.44;100.00;99669.44;5076441;28;45449;-90
2024/01/02 06:08:41;;;;;;;;;0.00;0.00;;;;;12.44;100.00;99659.81;5076219;28;45318;-88
2024/01/02 06:11:08;;;;;;;;;0.00;0.00;;;;;12.48;100.00;99657.88;5059605;28;45712;-89
2024/01/02 06:13:33;;;;;;;;;0.00;0.00;;;;;12.45;100.00;99664.13;5059189;28;45744;-89
2024/01/02 06:15:59;;;;;;;;;0.00;0.00;;;;;12.40;100.00;99661.75;5058931;28;51987;-89
2024/01/02 06:18:25;;;;;;;;;0.00;0.00;;;;;12.40;100.00;99656.53;5066996;28;45329;-89
2024/01/02 06:20:54;;;;;;;;;0.00;0.00;;;;;12.45;100.00;99668.50;5066670;28;62778;-90
2024/01/02 06:23:19;;;;;;;;;0.00;0.00;;;;;12.53;100.00;99666.31;5058909;28;45371;-89
2024/01/02 06:25:48;;;;;;;;;0.00;0.00;;;;;12.54;100.00;99662.81;5075817;28;66707;-89
2024/01/02 06:28:13;;;;;;;;;0.00;0.00;;;;;22.86;100.00;100614.19;5062142;28;65061;-88
2024/01/02 06:30:39;;;;;;;;;0.00;0.00;;;;;23.67;100.00;99717.31;5083377;27;45232;-89
2024/01/02 06:33:05;;;;;;;;;0.00;0.00;;;;;19.14;100.00;99685.81;5094779;28;31101;-89
2024/01/02 06:35:31;;;;;;;;;0.00;0.00;;;;;16.79;100.00;99689.53;5078362;28;30238;-90
2024/01/02 06:37:56;;;;;;;;;0.00;0.00;;;;;16.34;100.00;99668.19;5112072;27;28403;-88
2024/01/02 06:40:25;;;;;;;;;0.00;0.00;;;;;16.17;100.00;99652.78;5095730;28;27894;-89
2024/01/02 06:42:53;;;;;;;;;0.00;0.00;;;;;16.05;100.00;99673.69;5073187;28;30736;-89
2024/01/02 06:45:19;;;;;;;;;0.00;0.00;;;;;16.31;100.00;99643.94;5078787;28;44551;-88
2024/01/02 06:47:44;;;;;;;;;0.00;0.00;;;;;16.55;100.00;99649.25;5105143;28;27684;-89
2024/01/02 06:50:09;;;;;;;;;0.00;0.00;;;;;16.35;100.00;99645.41;5108612;27;42591;-88
2024/01/02 06:52:35;;;;;;;;;0.00;0.00;;;;;16.50;100.00;99646.09;5088573;28;45246;-89
2024/01/02 06:55:04;;;;;;;;;0.00;0.00;;;;;16.32;100.00;99648.25;5080026;27;47206;-90
2024/01/02 06:57:29;;;;;;;;;0.00;0.00;;;;;16.28;100.00;99665.16;5097072;27;45532;-90
2024/01/02 06:59:58;;;;;;;;;0.00;0.00;;;;;16.55;100.00;99623.00;5079024;28;45357;-90
2024/01/02 07:02:23;;;;;;;;;0.00;0.00;;;;;16.30;100.00;99643.09;5080276;27;45493;-88
2024/01/02 07:04:49;;;;;;;;;0.00;0.00;;;;;16.10;100.00;99644.47;5078129;28;72002;-89
2024/01/02 07:07:14;;;;;;;;;0.00;0.00;;;;;16.37;100.00;99631.22;5079871;28;45290;-88
2024/01/02 07:09:39;;;;;;;;;0.00;0.00;;;;;16.00;100.00;99659.19;5066079;28;45361;-89
2024/01/02 07:12:08;;;;;;;;;0.00;0.00;;;;;16.39;100.00;99641.59;5059839;28;50101;-91
2024/01/02 07:14:51;;;;;;;;;0.00;0.00;;;;;16.46;100.00;99621.84;5069959;28;46235;-90
2024/01/02 07:17:19;;;;;;;;;0.00;0.00;;;;;16.23;100.00;99626.94;5053993;28;45243;-91
2024/01/02 07:19:45;;;;;;;;;0.00;0.00;;;;;16.26;100.00;99626.72;5063287;28;45384;-90
2024/01/02 07:22:11;;;;;;;;;0.00;0.00;;;;;16.32;100.00;99624.59;5078401;28;61212;-89
2024/01/02 07:24:36;;;;;;;;;0.00;0.00;;;;;16.22;100.00;99655.94;5061368;28;68901;-90
2024/01/02 07:27:04;;;;;;;;;0.00;0.00;;;;;16.32;100.00;99630.69;5075748;28;45481;-90
2024/01/02 07:29:30;;;;;;;;;0.00;0.00;;;;;13.23;100.00;99614.53;5061963;28;60284;-89
2024/01/02 07:31:58;;;;;;;;;0.00;0.00;;;;;12.68;100.00;99592.38;5078727;28;45250;-88
2024/01/02 07:34:24;;;;;;;;;0.00;0.00;;;;;12.62;100.00;99607.56;5057868;28;69733;-92
2024/01/02 07:36:57;;;;;;;;;0.00;0.00;;;;;12.68;100.00;99605.44;5062331;28;45641;-87
2024/01/02 07:39:32;;;;;;;;;;;;;;;;;;;;;
2024/01/02 07:41:58;;;;;;;;;0.00;0.00;;;;;12.72;100.00;99593.91;5059323;28;69962;-86
2024/01/02 07:44:26;;;;;;;;;0.00;0.00;;;;;12.68;100.00;99596.75;5064028;28;60108;-84
2024/01/02 07:46:51;;;;;;;;;0.00;0.00;;;;;12.69;100.00;99595.84;5077488;28;45526;-87
2024/01/02 07:49:17;;;;;;;;;0.00;0.00;;;;;12.67;100.00;99601.16;5077209;28;45250;-85
2024/01/02 07:51:42;;;;;;;;;0.00;0.00;;;;;12.56;100.00;99587.84;5077278;28;45275;-84
2024/01/02 07:54:08;;;;;;;;;0.00;0.00;;;;;12.56;100.00;99591.31;5079435;27;46373;-82
2024/01/02 07:56:33;;;;;;;;;0.00;0.00;;;;;12.62;100.00;99587.50;5078328;28;45386;-85
2024/01/02 07:58:59;;;;;;;;;0.00;0.00;;;;;12.48;100.00;99596.13;5077055;28;63559;-85
2024/01/02 08:01:25;;;;;;;;;0.00;0.00;;;;;12.70;100.00;99587.06;5076984;28;57940;-84
2024/01/02 08:03:50;;;;;;;;;0.00;0.00;;;;;12.65;100.00;99576.03;5092959;27;66871;-84
2024/01/02 08:06:16;;;;;;;;;0.00;0.00;;;;;12.58;100.00;99581.63;5077346;27;57437;-83
2024/01/02 08:08:41;;;;;;;;;0.00;0.00;;;;;12.66;100.00;99578.56;5078180;28;62892;-83
2024/01/02 08:11:08;;;;;;;;;0.00;0.00;;;;;12.56;100.00;99585.25;5078253;28;45301;-83
2024/01/02 08:13:33;;;;;;;;;0.00;0.00;;;;;12.60;100.00;99568.47;5092326;27;48211;-83
2024/01/02 08:15:59;;;;;;;;;0.00;0.00;;;;;12.56;100.00;99572.19;5076350;28;45344;-82
2024/01/02 08:18:24;;;;;;;;;0.00;0.00;;;;;12.54;100.00;99566.22;5076826;28;64854;-84
2024/01/02 08:20:49;;;;;;;;;0.00;0.00;;;;;12.57;100.00;99586.91;5077636;27;45402;-83
2024/01/02 08:23:15;;;;;;;;;0.00;0.00;;;;;12.65;100.00;99558.63;5075327;28;66234;-83
2024/01/02 08:25:41;;;;;;;;;0.00;0.00;;;;;12.66;100.00;99555.06;5093104;27;45776;-82
2024/01/02 08:28:06;;;;;;;;;0.00;0.00;;;;;12.61;100.00;99551.03;5077363;27;45389;-83
2024/01/02 08:30:32;;;;;;;;;0.00;0.00;;;;;12.55;100.00;99576.53;5076570;28;45352;-84
2024/01/02 08:32:58;;;;;;;;;0.00;0.00;;;;;12.69;100.00;99548.84;5077271;27;46397;-84
2024/01/02 08:35:25;;;;;;;;;0.00;0.00;;;;;12.71;100.00;99557.44;5076088;28;45365;-83
2024/01/02 08:37:51;;;;;;;;;0.00;0.00;;;;;12.64;100.00;99561.31;5076101;28;45416;-85
2024/01/02 08:40:16;;;;;;;;;0.00;0.00;;;;;12.70;100.00;99560.97;5076581;28;68540;-85
2024/01/02 08:42:42;;;;;;;;;0.00;0.00;;;;;12.53;100.00;99569.75;5067932;28;46824;-83
2024/01/02 08:45:10;;;;;;;;;0.00;0.00;;;;;12.66;100.00;99547.25;5066433;28;45564;-86
2024/01/02 08:47:38;;;;;;;;;0.00;0.00;;;;;12.74;100.00;99537.22;5069470;28;45614;-83
2024/01/02 08:50:05;;;;;;;;;0.00;0.00;;;;;12.64;100.00;99536.03;5072258;28;45505;-87
2024/01/02 08:52:30;;;;;;;;;0.00;0.00;;;;;12.63;100.00;99530.91;5081392;27;47038;-85
2024/01/02 08:54:56;;;;;;;;;0.00;0.00;;;;;12.70;100.00;99527.03;5059874;28;72442;-85
2024/01/02 08:57:21;;;;;;;;;0.00;0.00;;;;;30.32;100.00;99577.88;5055534;28;45287;-84
2024/01/02 08:59:46;;;;;;;;;0.00;0.00;;;;;13.66;100.00;99551.88;5085515;28;68400;-85
2024/01/02 09:02:12;;;;;;;;;0.00;0.00;;;;;18.35;100.00;99556.84;5096318;28;44533;-86
2024/01/02 09:04:37;;;;;;;;;0.00;0.00;;;;;17.74;100.00;99551.94;5086650;27;45382;-85
2024/01/02 09:07:02;;;;;;;;;0.00;0.00;;;;;17.81;100.00;99534.69;5077112;28;44384;-86
2024/01/02 09:09:28;;;;;;;;;0.00;0.00;;;;;17.98;100.00;99554.47;5038397;28;45330;-85
2024/01/02 09:11:53;;;;;;;;;0.00;0.00;;;;;17.58;100.00;99562.81;5072796;28;46290;-86
2024/01/02 09:14:19;;;;;;;;;0.00;0.00;;;;;17.95;100.00;99565.25;5057288;28;70136;-85
2024/01/02 09:16:45;;;;;;;;;0.00;0.00;;;;;17.85;100.00;99565.13;5070649;28;68958;-85
2024/01/02 09:19:10;;;;;;;;;0.00;0.00;;;;;17.58;100.00;99553.09;5079283;28;41066;-85
2024/01/02 09:21:36;;;;;;;;;0.00;0.00;;;;;17.67;100.00;99566.53;5095799;28;43956;-85
2024/01/02 09:24:04;;;;;;;;;0.00;0.00;;;;;20.04;100.00;99529.53;5077330;28;43355;-85
2024/01/02 09:26:30;;;;;;;;;0.00;0.00;;;;;12.91;100.00;99532.81;5070727;28;28452;-85
2024/01/02 09:28:56;;;;;;;;;0.00;0.00;;;;;13.00;100.00;99526.19;5070673;28;28565;-85
2024/01/02 09:31:25;;;;;;;;;0.00;0.00;;;;;12.89;100.00;99514.59;5071350;28;30003;-84
2024/01/02 09:33:50;;;;;;;;;0.00;0.00;;;;;12.83;100.00;99516.72;5078458;28;41060;-84
2024/01/02 09:36:16;;;;;;;;;0.00;0.00;;;;;12.71;100.00;99507.84;5081953;28;44008;-84
2024/01/02 09:38:41;;;;;;;;;0.00;0.00;;;;;12.83;100.00;99509.72;5059419;28;70651;-84
2024/01/02 09:41:42;;;;;;;;;0.00;0.00;;;;;13.02;100.00;99504.28;5053854;28;52857;-86
2024/01/02 09:44:45;;;;;;;;;0.00;0.00;;;;;12.77;100.00;99512.69;5035942;28;45603;-84
2024/01/02 09:47:28;;;;;;;;;0.00;0.00;;;;;13.26;100.00;99504.59;5043167;28;45630;-85
2024/01/02 09:50:33;;;;;;;;;0.00;0.00;;;;;12.82;100.00;99520.28;5038104;28;45872;-85
2024/01/02 09:53:08;;;;;;;;;0.00;0.00;;;;;12.84;100.00;99523.63;5015348;28;46353;-85
2024/01/02 09:55:37;;;;;;;;;0.00;0.00;;;;;12.87;100.00;99494.72;5032544;28;45788;-84
2024/01/02 09:58:08;;;;;;;;;0.00;0.00;;;;;12.84;100.00;99521.84;5030686;28;45492;-86
2024/01/02 10:00:39;;;;;;;;;0.00;0.00;;;;;12.92;100.00;99508.34;5033841;28;45595;-85
2024/01/02 10:03:25;;;;;;;;;0.00;0.00;;;;;12.99;100.00;99491.41;5036740;28;46271;-84
2024/01/02 10:06:19;;;;;;;;;0.00;0.00;;;;;12.89;100.00;99496.31;5036478;28;45491;-85
2024/01/02 10:09:00;;;;;;;;;0.00;0.00;;;;;44.57;100.00;99547.25;5049073;28;45431;-84
2024/01/02 10:11:48;;;;;;;;;0.00;0.00;;;;;21.96;100.00;99489.09;5046497;28;45625;-84
2024/01/02 10:14:25;;;;;;;;;0.00;0.00;;;;;18.51;100.00;99487.91;5055625;28;29551;-85
2024/01/02 10:16:58;;;;;;;;;0.00;0.00;;;;;17.92;100.00;99474.19;5058208;28;45425;-85
2024/01/02 10:19:45;;;;;;;;;0.00;0.00;;;;;17.51;100.00;99504.53;5057278;28;45510;-84
2024/01/02 10:22:31;;;;;;;;;0.00;0.00;;;;;17.42;100.00;99506.13;5058914;28;45495;-84
2024/01/02 10:25:05;;;;;;;;;0.00;0.00;;;;;16.93;100.00;99524.75;5074330;28;45649;-85
2024/01/02 10:27:59;;;;;;;;;0.00;0.00;;;;;16.63;100.00;99524.25;5074142;28;45473;-85
2024/01/02 10:30:31;;;;;;;;;0.00;0.00;;;;;16.85;100.00;99511.38;5058824;28;45609;-83
2024/01/02 10:33:09;;;;;;;;;0.00;0.00;;;;;16.53;100.00;99519.78;5057382;28;45508;-84
2024/01/02 10:35:45;;;;;;;;;0.00;0.00;;;;;16.74;100.00;99501.63;5057032;28;46438;-84
2024/01/02 10:38:19;;;;;;;;;0.00;0.00;;;;;16.70;100.00;99498.38;5066633;28;45368;-85
2024/01/02 10:41:03;;;;;;;;;28.50;26.00;;;;;15.86;100.00;99484.31;5089687;28;38707;-84
2024/01/02 10:43:30;;;;;;;;;0.00;0.00;;;;;15.71;100.00;99493.25;5088889;28;28476;-84
2024/01/02 10:46:33;;;;;;;;;0.00;0.00;;;;;15.61;100.00;99493.06;5093325;27;29446;-83
2024/01/02 10:49:15;;;;;;;;;0.00;0.00;;;;;15.68;100.00;99482.00;5093078;27;28547;-83
2024/01/02 10:51:42;;;;;;;;;0.00;0.00;;;;;15.57;100.00;99476.69;5075985;28;28575;-84
2024/01/02 10:54:30;;;;;;;;;0.00;0.00;;;;;15.56;100.00;99479.41;5074629;28;36127;-85
2024/01/02 10:57:03;;;;;;;;;0.00;0.00;;;;;15.65;100.00;99458.63;5054775;28;44230;-82
2024/01/02 10:59:32;;;;;;;;;0.00;0.00;;;;;15.34;100.00;99480.91;5036092;28;45307;-85
2024/01/02 11:02:31;;;;;;;;;0.00;0.00;;;;;15.41;100.00;99466.41;5038796;28;45300;-84
2024/01/02 11:05:23;;;;;;;;;0.00;0.00;;;;;15.33;100.00;99471.34;5056146;28;45461;-84
2024/01/02 11:08:00;;;;;;;;;0.00;0.00;;;;;34.63;100.00;99499.38;5007546;28;47379;-85
2024/01/02 11:10:29;;;;;;;;;0.00;0.00;;;;;-145.09;100.00;59365.97;5052995;28;36746;-84
2024/01/02 11:12:57;;;;;;;;;0.00;0.00;;;;;16.86;100.00;99457.84;5033324;28;28632;-84
2024/01/02 11:15:25;;;;;;;;;0.00;0.00;;;;;16.62;100.00;99453.44;5032741;28;28476;-83
2024/01/02 11:18:00;;;;;;;;;0.00;0.00;;;;;16.51;100.00;99461.28;5032725;28;30129;-85
2024/01/02 11:20:32;;;;;;;;;0.00;0.00;;;;;16.57;100.00;99429.31;5033145;28;28500;-83
2024/01/02 11:23:02;;;;;;;;;0.00;0.00;;;;;16.53;100.00;99443.63;5050059;28;28363;-84
2024/01/02 11:25:31;;;;;;;;;0.00;0.00;;;;;16.69;100.00;99440.69;5016581;28;28582;-83
2024/01/02 11:27:59;;;;;;;;;0.00;0.00;;;;;16.48;100.00;99446.59;5034949;28;28555;-87
2024/01/02 11:30:26;;;;;;;;;0.00;0.00;;;;;16.15;100.00;99452.53;5046809;28;28928;-85
2024/01/02 11:32:55;;;;;;;;;0.00;0.00;;;;;16.27;100.00;99449.03;5035052;28;28477;-82